Copper Creek, Canada
Current Conditions -  °F | °C
As of 2:00 PM on Wednesday 22 Oct 2014 (Local Time) from CYKA Reporting Station
Broken Clouds Broken Clouds  
Wind Chill: 59°   Ceiling: 12000
Heat Index: 59°   Visibility: 40mi
Dew Point: 41°   Wind: 16mph
Humidity: 51%   Direction: 120°ESE
Pressure: 29.66"   Gusts: 24mph
Location:  50.8°N, 120.76°W
Report Text: CYKA 222100Z 12014G21KT 40SM SCT050 BKN120 BKN230 15/05 A2966 RMK CU3AC3CI1 SLP046 DENSITY ALT 1700FT
Loading
Personal Weather Stations






























Interactive Weather Map New forecast layout! Learn more

10-Day Weather Forecast

Advertisements
Track Severe Weather on mobile